Time;durP1;ratioP1;P1;durP2;ratioP2;P2;SDS_P1;SDS_P2;PMS_P1;PMS_P2;Temp;Humidity;BMP_temperature;BMP_pressure;BME280_temperature;BME280_humidity;BME280_pressure;Samples;Min_cycle;Max_cycle;Signal;HPM_P1;HPM_P2
2023/09/16 00:02:06;;;;;;;7.13;3.53;;;14.80;99.90;;;15.48;100.00;97973.06;5045199;28;20479;-80
2023/09/16 00:04:37;;;;;;;4.90;3.50;;;14.70;99.90;;;15.50;100.00;97974.47;5040812;28;20472;-80
2023/09/16 00:07:07;;;;;;;4.03;2.67;;;14.60;99.90;;;15.44;100.00;97975.34;5046420;28;20454;-80
2023/09/16 00:09:40;;;;;;;3.43;2.73;;;14.60;99.90;;;15.47;100.00;97974.91;5044514;28;20456;-79
2023/09/16 00:12:10;;;;;;;11.90;3.37;;;14.60;99.90;;;15.49;100.00;97972.88;5046810;28;20552;-79
2023/09/16 00:14:41;;;;;;;6.60;3.13;;;14.50;99.90;;;15.49;100.00;97967.59;5043537;28;20566;-79
2023/09/16 00:17:11;;;;;;;4.00;3.27;;;14.50;99.90;;;15.50;100.00;97963.94;5041955;28;20833;-79
2023/09/16 00:19:40;;;;;;;4.20;3.00;;;14.50;99.90;;;15.46;100.00;97973.28;5046016;28;20475;-79
2023/09/16 00:22:10;;;;;;;5.03;3.20;;;14.50;99.90;;;15.42;100.00;97972.09;5046996;28;20459;-79
2023/09/16 00:24:42;;;;;;;5.40;4.20;;;14.40;99.90;;;15.38;100.00;97975.38;5046191;28;20513;-81
2023/09/16 00:27:12;;;;;;;6.13;3.57;;;14.40;99.90;;;15.33;100.00;97973.44;5049745;28;21036;-81
2023/09/16 00:29:42;;;;;;;3.67;3.20;;;14.40;99.90;;;15.32;100.00;97966.53;5049562;28;20822;-81
2023/09/16 00:32:12;;;;;;;4.80;3.30;;;14.40;99.90;;;15.31;100.00;97972.81;5051108;28;20575;-80
2023/09/16 00:34:42;;;;;;;5.80;3.13;;;14.40;99.90;;;15.27;100.00;97965.59;5044018;28;20463;-80
2023/09/16 00:37:13;;;;;;;5.13;3.60;;;14.40;99.90;;;15.21;100.00;97964.63;5046902;28;20461;-81
2023/09/16 00:39:44;;;;;;;5.10;3.03;;;14.50;99.90;;;15.15;100.00;97962.06;5047959;28;20557;-81
2023/09/16 00:42:13;;;;;;;3.77;3.00;;;14.40;99.90;;;15.21;100.00;97961.19;5044830;28;20469;-81
2023/09/16 00:44:43;;;;;;;7.50;3.63;;;14.40;99.90;;;15.21;100.00;97963.81;5044625;28;20960;-80
2023/09/16 00:47:13;;;;;;;4.90;3.50;;;14.40;99.90;;;15.18;100.00;97966.88;5045889;28;20552;-80
2023/09/16 00:49:43;;;;;;;8.67;3.53;;;14.30;99.90;;;15.18;100.00;97958.97;5046377;28;20496;-80
2023/09/16 00:52:14;;;;;;;6.93;3.77;;;14.20;99.90;;;15.13;100.00;97957.03;5047115;28;20492;-79
2023/09/16 00:54:50;;;;;;;5.10;3.63;;;14.20;99.90;;;15.13;100.00;97960.44;5048425;28;20518;-80
2023/09/16 00:57:20;;;;;;;6.27;3.87;;;14.20;99.90;;;15.09;100.00;97955.84;5047627;28;20490;-79
2023/09/16 00:59:49;;;;;;;9.53;3.47;;;14.20;99.90;;;15.06;100.00;97961.53;5047466;28;20519;-80
2023/09/16 01:02:20;;;;;;;4.63;3.00;;;14.20;99.90;;;15.10;100.00;97960.88;5047969;28;20473;-80
2023/09/16 01:04:53;;;;;;;3.70;2.90;;;14.20;99.90;;;15.08;100.00;97970.03;5044999;28;20469;-80
2023/09/16 01:07:25;;;;;;;5.97;3.00;;;14.20;99.90;;;15.06;100.00;97956.28;5047580;28;20996;-80
2023/09/16 01:09:56;;;;;;;3.33;2.67;;;14.20;99.90;;;15.03;100.00;97959.31;5048583;28;20456;-80
2023/09/16 01:12:27;;;;;;;5.70;3.60;;;14.20;99.90;;;15.07;100.00;97957.88;5046116;28;20456;-79
2023/09/16 01:14:57;;;;;;;5.33;3.50;;;14.10;99.90;;;15.03;100.00;97967.22;5049824;28;20526;-79
2023/09/16 01:17:35;;;;;;;4.27;3.17;;;14.10;99.90;;;15.04;100.00;97964.38;5046276;28;20564;-79
2023/09/16 01:20:13;;;;;;;5.20;3.73;;;14.10;99.90;;;15.01;100.00;97964.81;5048582;28;20472;-80
2023/09/16 01:22:45;;;;;;;4.77;3.30;;;14.10;99.90;;;15.02;100.00;97966.44;5048534;28;20449;-83
2023/09/16 01:25:16;;;;;;;7.47;3.13;;;14.10;99.90;;;15.00;100.00;97970.28;5046942;28;20461;-81
2023/09/16 01:27:46;;;;;;;8.50;3.83;;;14.10;99.90;;;15.04;100.00;97966.22;5048070;28;20461;-80
2023/09/16 01:30:17;;;;;;;5.10;3.10;;;14.10;99.90;;;14.96;100.00;97966.50;5046494;28;20461;-81
2023/09/16 01:32:55;;;;;;;5.90;2.93;;;14.10;99.90;;;14.87;100.00;97965.97;5047132;28;20958;-80
2023/09/16 01:35:30;;;;;;;3.93;3.10;;;14.00;99.90;;;14.82;100.00;97968.41;5047386;28;20511;-81
2023/09/16 01:38:02;;;;;;;5.20;3.60;;;14.00;99.90;;;14.85;100.00;97969.84;5047725;28;20466;-80
2023/09/16 01:40:34;;;;;;;4.30;3.37;;;13.90;99.90;;;14.87;100.00;97973.03;5047352;28;20457;-81
2023/09/16 01:43:05;;;;;;;5.37;3.57;;;13.80;99.90;;;14.86;100.00;97971.44;5046211;28;20469;-80
2023/09/16 01:45:45;;;;;;;6.23;3.67;;;13.90;99.90;;;14.87;100.00;97970.41;5042707;28;20560;-81
2023/09/16 01:48:16;;;;;;;8.33;2.70;;;13.90;99.90;;;14.83;100.00;97971.88;5047790;28;20559;-80
2023/09/16 01:50:46;;;;;;;4.20;2.97;;;13.80;99.90;;;14.79;100.00;97968.03;5049078;28;20837;-81
2023/09/16 01:53:16;;;;;;;4.40;3.33;;;13.80;99.90;;;14.75;100.00;97977.41;5046519;28;20485;-81
2023/09/16 01:55:48;;;;;;;16.97;3.40;;;13.80;99.90;;;14.82;100.00;97980.81;5045269;28;22040;-81
2023/09/16 01:58:17;;;;;;;3.90;3.50;;;13.80;99.90;;;14.77;100.00;97985.91;5046709;28;20466;-81
2023/09/16 02:00:49;;;;;;;4.20;3.27;;;13.70;99.90;;;14.70;100.00;97982.50;5045234;28;20466;-82
2023/09/16 02:03:20;;;;;;;3.73;3.17;;;13.80;99.90;;;14.73;100.00;97987.34;5045548;28;20515;-81
2023/09/16 02:05:50;;;;;;;4.63;3.57;;;13.70;99.90;;;14.72;100.00;97983.91;5045129;28;20473;-81
2023/09/16 02:08:21;;;;;;;6.30;3.33;;;13.70;99.90;;;14.73;100.00;97985.50;5046351;28;20459;-81
2023/09/16 02:10:52;;;;;;;6.03;2.97;;;13.60;99.90;;;14.70;100.00;97975.41;5042919;28;20492;-82
2023/09/16 02:13:22;;;;;;;5.10;4.00;;;13.70;99.90;;;14.75;100.00;97980.84;5046902;28;20831;-81
2023/09/16 02:15:53;;;;;;;5.13;3.33;;;13.70;99.90;;;14.73;100.00;97987.34;5045960;28;20715;-82
2023/09/16 02:18:24;;;;;;;4.60;3.33;;;13.70;99.90;;;14.65;100.00;97987.63;5043787;28;20465;-81
2023/09/16 02:20:54;;;;;;;7.23;4.10;;;13.70;99.90;;;14.66;100.00;97991.84;5047109;28;21359;-82
2023/09/16 02:23:23;;;;;;;4.07;3.00;;;13.60;99.90;;;14.69;100.00;97988.78;5045970;28;20556;-82
2023/09/16 02:26:00;;;;;;;4.20;3.13;;;13.60;99.90;;;14.65;100.00;97988.41;5047246;28;20465;-81
2023/09/16 02:28:30;;;;;;;3.33;2.60;;;13.70;99.90;;;14.65;100.00;97995.53;5049420;28;20462;-81
2023/09/16 02:31:00;;;;;;;5.90;3.30;;;13.60;99.90;;;14.64;100.00;97983.38;5046434;28;20923;-80
2023/09/16 02:33:31;;;;;;;5.33;3.07;;;13.60;99.90;;;14.63;100.00;97987.81;5043698;28;20493;-81
2023/09/16 02:36:02;;;;;;;4.40;3.47;;;13.50;99.90;;;14.58;100.00;97988.47;5048707;28;20994;-80
2023/09/16 02:38:32;;;;;;;5.53;3.30;;;13.50;99.90;;;14.51;100.00;97992.97;5045804;28;20458;-81
2023/09/16 02:41:05;;;;;;;4.27;3.30;;;13.70;99.90;;;14.52;100.00;97986.69;5044074;28;20465;-80
2023/09/16 02:43:35;;;;;;;6.60;3.17;;;13.60;99.90;;;14.55;100.00;97982.81;5045586;28;20465;-81
2023/09/16 02:46:05;;;;;;;4.40;3.00;;;13.60;99.90;;;14.53;100.00;97990.94;5041823;28;20453;-80
2023/09/16 02:48:34;;;;;;;7.67;3.00;;;13.50;99.90;;;14.47;100.00;97989.13;5043697;28;20661;-81
2023/09/16 02:51:04;;;;;;;9.03;3.20;;;13.50;99.90;;;14.49;100.00;97987.13;5042441;28;20483;-80
2023/09/16 02:53:35;;;;;;;4.90;3.50;;;13.50;99.90;;;14.46;100.00;97984.09;5043712;28;20477;-81
2023/09/16 02:56:08;;;;;;;5.47;2.93;;;13.50;99.90;;;14.41;100.00;97990.00;5048065;28;20465;-81
2023/09/16 02:58:37;;;;;;;4.20;3.03;;;13.50;99.90;;;14.44;100.00;97989.56;5044594;28;20474;-81
2023/09/16 03:01:10;;;;;;;7.23;3.40;;;13.50;99.90;;;14.40;100.00;97992.84;5047371;28;20465;-81
2023/09/16 03:03:40;;;;;;;5.57;3.30;;;13.40;99.90;;;14.38;100.00;97982.53;5043754;28;20468;-80
2023/09/16 03:06:09;;;;;;;4.67;3.10;;;13.50;99.90;;;14.33;100.00;97987.59;5040742;28;20519;-79
2023/09/16 03:08:39;;;;;;;5.87;3.40;;;13.40;99.90;;;14.31;100.00;97984.38;5044854;28;20925;-79
2023/09/16 03:11:14;;;;;;;4.80;3.43;;;13.40;99.90;;;14.37;100.00;97977.50;5047408;28;20449;-80
2023/09/16 03:13:44;;;;;;;8.50;3.77;;;13.40;99.90;;;14.32;100.00;97975.47;5040194;28;20491;-80
2023/09/16 03:16:18;;;;;;;13.13;3.47;;;13.30;99.90;;;14.33;100.00;97979.72;5044051;28;20468;-81
2023/09/16 03:18:50;;;;;;;4.13;3.00;;;13.30;99.90;;;14.35;100.00;97977.69;5043793;28;20449;-81
2023/09/16 03:21:26;;;;;;;4.00;3.10;;;13.30;99.90;;;14.34;100.00;97972.63;5042365;28;20558;-81
2023/09/16 03:23:56;;;;;;;5.50;3.60;;;13.20;99.90;;;14.31;100.00;97973.03;5045448;28;20462;-80
2023/09/16 03:26:30;;;;;;;4.50;3.40;;;13.20;99.90;;;14.24;100.00;97970.44;5043147;28;20477;-80
2023/09/16 03:29:00;;;;;;;4.83;3.07;;;13.20;99.90;;;14.22;100.00;97969.06;5044038;28;21226;-80
2023/09/16 03:31:29;;;;;;;3.83;3.13;;;13.20;99.90;;;14.18;100.00;97971.31;5044160;28;20495;-80
2023/09/16 03:33:58;;;;;;;5.70;3.30;;;13.20;99.90;;;14.21;100.00;97970.06;5043806;28;20975;-79
2023/09/16 03:36:29;;;;;;;3.40;2.73;;;13.10;99.90;;;14.19;100.00;97969.47;5044203;28;20592;-79
2023/09/16 03:38:59;;;;;;;3.67;3.17;;;13.20;99.90;;;14.13;100.00;97971.94;5045434;28;20540;-80
2023/09/16 03:41:30;;;;;;;7.90;3.67;;;13.10;99.90;;;14.18;100.00;97973.94;5043629;28;20564;-79
2023/09/16 03:44:00;;;;;;;15.33;3.40;;;13.10;99.90;;;14.19;100.00;97969.47;5046586;28;20497;-79
2023/09/16 03:46:30;;;;;;;6.30;3.63;;;13.10;99.90;;;14.15;100.00;97968.28;5042505;28;21154;-79
2023/09/16 03:49:00;;;;;;;5.50;3.90;;;13.10;99.90;;;14.12;100.00;97959.00;5042827;28;20506;-79
2023/09/16 03:51:31;;;;;;;9.87;3.80;;;13.10;99.90;;;14.13;100.00;97954.56;5045653;28;20480;-79
2023/09/16 03:54:04;;;;;;;4.03;3.27;;;13.10;99.90;;;14.11;100.00;97957.38;5046862;28;20461;-79
2023/09/16 03:56:35;;;;;;;12.27;3.80;;;13.10;99.90;;;14.09;100.00;97948.91;5043496;28;20988;-79
2023/09/16 03:59:05;;;;;;;4.77;3.20;;;13.10;99.90;;;14.12;100.00;97961.63;5043642;28;20543;-79
2023/09/16 04:01:35;;;;;;;4.87;3.33;;;13.10;99.90;;;14.11;100.00;97950.31;5043966;28;20468;-79
2023/09/16 04:04:07;;;;;;;6.20;2.87;;;13.00;99.90;;;14.09;100.00;97954.16;5046218;28;20464;-79
2023/09/16 04:06:38;;;;;;;7.17;3.10;;;13.10;99.90;;;14.04;100.00;97946.91;5043822;28;20473;-79
2023/09/16 04:09:07;;;;;;;5.00;3.50;;;13.10;99.90;;;14.05;100.00;97952.97;5048384;28;20483;-80
2023/09/16 04:11:38;;;;;;;6.33;3.50;;;13.10;99.90;;;14.06;100.00;97955.38;5045341;28;20500;-79
2023/09/16 04:14:08;;;;;;;4.73;3.20;;;13.00;99.90;;;14.04;100.00;97943.47;5047827;28;21082;-80
2023/09/16 04:16:39;;;;;;;5.13;3.60;;;13.00;99.90;;;14.02;100.00;97948.16;5048695;28;20486;-79
2023/09/16 04:19:08;;;;;;;3.97;3.57;;;13.00;99.90;;;13.96;100.00;97941.06;5048496;28;20459;-80
2023/09/16 04:21:38;;;;;;;15.03;3.50;;;13.00;99.90;;;13.98;100.00;97939.88;5046493;28;20470;-78
2023/09/16 04:24:11;;;;;;;3.97;3.40;;;13.00;99.90;;;13.90;100.00;97944.56;5051703;28;20455;-78
2023/09/16 04:26:42;;;;;;;8.00;3.57;;;13.00;99.90;;;13.95;100.00;97939.47;5048171;28;21268;-79
2023/09/16 04:29:13;;;;;;;5.27;3.40;;;13.00;99.90;;;13.91;100.00;97938.28;5046795;28;20504;-79
2023/09/16 04:31:46;;;;;;;5.50;3.73;;;13.00;99.90;;;13.88;100.00;97941.34;5045776;28;20464;-78
2023/09/16 04:34:16;;;;;;;5.13;2.67;;;12.90;99.90;;;13.78;100.00;97938.38;5047473;28;20526;-80
2023/09/16 04:36:46;;;;;;;6.10;4.00;;;12.90;99.90;;;13.84;100.00;97940.16;5047222;28;20471;-80
2023/09/16 04:39:17;;;;;;;7.13;3.33;;;12.90;99.90;;;13.86;100.00;97944.16;5049611;28;21021;-80
2023/09/16 04:41:53;;;;;;;4.13;3.23;;;12.80;99.90;;;13.84;100.00;97937.50;5048582;28;20483;-80
2023/09/16 04:44:23;;;;;;;4.00;3.17;;;12.80;99.90;;;13.75;100.00;97936.13;5050017;28;20507;-80
2023/09/16 04:46:54;;;;;;;3.80;3.40;;;12.80;99.90;;;13.79;100.00;97940.75;5048795;28;20472;-79
2023/09/16 04:49:24;;;;;;;4.73;3.10;;;12.70;99.90;;;13.73;100.00;97940.78;5048128;28;20459;-79
2023/09/16 04:51:54;;;;;;;7.50;2.90;;;12.80;99.90;;;13.69;100.00;97943.03;5044104;28;21012;-80
2023/09/16 04:54:26;;;;;;;5.23;3.40;;;12.70;99.90;;;13.74;100.00;97937.16;5047102;28;20459;-80
2023/09/16 04:56:58;;;;;;;7.00;3.70;;;12.70;99.90;;;13.71;100.00;97937.59;5044479;28;20465;-80
2023/09/16 04:59:27;;;;;;;6.37;3.10;;;12.70;99.90;;;13.62;100.00;97937.00;5045727;28;20467;-80
2023/09/16 05:01:56;;;;;;;3.83;3.40;;;12.70;99.90;;;13.59;100.00;97932.97;5047323;28;20477;-80
2023/09/16 05:04:25;;;;;;;11.13;3.50;;;12.70;99.90;;;13.61;100.00;97928.31;5042653;28;20470;-80
2023/09/16 05:06:55;;;;;;;4.50;3.40;;;12.70;99.90;;;13.64;100.00;97931.56;5045601;28;20500;-80
2023/09/16 05:09:26;;;;;;;4.67;3.03;;;12.80;99.90;;;13.65;100.00;97927.88;5049778;28;20481;-78
2023/09/16 05:11:57;;;;;;;3.60;2.87;;;12.60;99.90;;;13.65;100.00;97938.41;5046105;28;20465;-80
2023/09/16 05:14:27;;;;;;;5.53;3.50;;;12.60;99.90;;;13.64;100.00;97936.81;5048468;28;20555;-81
2023/09/16 05:16:57;;;;;;;8.23;3.27;;;12.70;99.90;;;13.61;100.00;97940.63;5044559;28;20548;-80
2023/09/16 05:19:26;;;;;;;3.90;3.43;;;12.60;99.90;;;13.63;100.00;97938.63;5048691;28;20457;-81
2023/09/16 05:21:58;;;;;;;4.80;3.20;;;12.60;99.90;;;13.61;100.00;97935.38;5045622;28;20469;-81
2023/09/16 05:24:31;;;;;;;6.90;3.63;;;12.60;99.90;;;13.62;100.00;97931.75;5044880;28;20969;-80
2023/09/16 05:27:03;;;;;;;4.27;3.70;;;12.60;99.90;;;13.66;100.00;97938.22;5043175;28;20470;-80
2023/09/16 05:29:33;;;;;;;5.03;3.53;;;12.60;99.90;;;13.65;100.00;97926.06;5047916;28;20460;-80
2023/09/16 05:32:02;;;;;;;3.30;2.83;;;12.60;99.90;;;13.63;100.00;97935.19;5045377;28;20523;-80
2023/09/16 05:34:33;;;;;;;4.43;3.27;;;12.50;99.90;;;13.64;100.00;97932.34;5045647;28;20585;-80
2023/09/16 05:37:04;;;;;;;5.27;3.53;;;12.50;99.90;;;13.66;100.00;97940.03;5042447;28;20900;-80
2023/09/16 05:39:35;;;;;;;3.60;3.13;;;12.60;99.90;;;13.67;100.00;97944.28;5048176;28;21102;-80
2023/09/16 05:42:08;;;;;;;7.60;3.63;;;12.60;99.90;;;13.67;100.00;97941.66;5046630;28;20553;-80
2023/09/16 05:44:37;;;;;;;4.27;3.10;;;12.60;99.90;;;13.63;100.00;97943.06;5049448;28;20461;-80
2023/09/16 05:47:07;;;;;;;9.97;3.50;;;12.70;99.90;;;13.66;100.00;97946.09;5044997;28;20527;-80
2023/09/16 05:49:36;;;;;;;6.30;4.17;;;12.70;99.90;;;13.66;100.00;97942.66;5048179;28;20471;-80
2023/09/16 05:52:08;;;;;;;5.90;3.60;;;12.60;99.90;;;13.65;100.00;97941.03;5042162;28;20477;-80
2023/09/16 05:54:38;;;;;;;5.10;3.77;;;12.60;99.90;;;13.67;100.00;97939.00;5044801;28;21053;-81
2023/09/16 05:57:10;;;;;;;8.30;3.97;;;12.60;99.90;;;13.69;100.00;97939.59;5044836;28;20469;-80
2023/09/16 05:59:40;;;;;;;8.17;4.00;;;12.60;99.90;;;13.69;100.00;97948.28;5043246;28;20457;-81
2023/09/16 06:02:09;;;;;;;6.33;3.40;;;12.80;99.90;;;13.74;100.00;97947.69;5034664;28;20472;-80
2023/09/16 06:04:39;;;;;;;11.73;6.20;;;12.70;99.90;;;13.75;100.00;97942.19;5042453;28;20565;-81
2023/09/16 06:07:08;;;;;;;6.30;3.60;;;12.80;99.90;;;13.77;100.00;97949.88;5042152;28;20452;-80
2023/09/16 06:09:39;;;;;;;5.93;3.87;;;12.80;99.90;;;13.79;100.00;97937.31;5041964;28;21135;-81
2023/09/16 06:12:09;;;;;;;6.47;3.80;;;12.80;99.90;;;13.82;100.00;97936.91;5042656;28;20457;-81
2023/09/16 06:14:40;;;;;;;7.60;3.93;;;12.80;99.90;;;13.83;100.00;97935.91;5042775;28;20982;-81
2023/09/16 06:17:10;;;;;;;6.93;3.57;;;12.80;99.90;;;13.87;100.00;97947.59;5044561;28;20549;-81
2023/09/16 06:19:41;;;;;;;7.40;3.67;;;12.80;99.90;;;13.91;100.00;97947.00;5045678;28;20484;-81
2023/09/16 06:22:11;;;;;;;7.93;3.30;;;12.90;99.90;;;13.92;100.00;97939.88;5045402;28;20457;-81
2023/09/16 06:24:41;;;;;;;7.57;3.30;;;13.00;99.90;;;13.92;100.00;97943.31;5043138;28;21024;-82
2023/09/16 06:27:13;;;;;;;7.30;3.00;;;13.00;99.90;;;13.95;100.00;97947.38;5046116;28;20483;-81
2023/09/16 06:29:44;;;;;;;12.13;4.67;;;13.00;99.90;;;13.93;100.00;97947.56;5045545;28;20468;-82
2023/09/16 06:32:13;;;;;;;4.67;3.20;;;13.10;99.90;;;13.98;100.00;97953.03;5044383;28;20468;-81
2023/09/16 06:34:43;;;;;;;7.47;3.37;;;13.00;99.90;;;13.99;100.00;97948.53;5044470;28;20583;-82
2023/09/16 06:37:14;;;;;;;6.93;3.53;;;13.00;99.90;;;14.03;100.00;97949.72;5045687;28;21229;-81
2023/09/16 06:39:45;;;;;;;4.90;3.60;;;13.10;99.90;;;14.05;100.00;97948.53;5047028;28;20475;-82
2023/09/16 06:42:17;;;;;;;4.60;3.60;;;13.10;99.90;;;14.09;100.00;97949.69;5046088;28;20469;-82
2023/09/16 06:44:54;;;;;;;8.00;3.70;;;13.20;99.90;;;14.14;100.00;97935.91;5046105;28;20453;-82
2023/09/16 06:47:27;;;;;;;5.60;3.60;;;13.20;99.90;;;14.17;100.00;97940.75;5046563;28;20460;-81
2023/09/16 06:49:57;;;;;;;10.90;4.03;;;13.20;99.90;;;14.18;100.00;97936.31;5047169;28;20469;-82
2023/09/16 06:52:27;;;;;;;8.57;3.70;;;13.20;99.90;;;14.20;100.00;97935.06;5044639;28;20485;-81
2023/09/16 06:54:58;;;;;;;4.90;4.03;;;13.20;99.90;;;14.22;100.00;97943.56;5044765;28;20498;-80
2023/09/16 06:57:30;;;;;;;7.63;4.50;;;13.30;99.90;;;14.26;100.00;97942.13;5045894;28;20469;-82
2023/09/16 07:00:00;;;;;;;8.77;3.50;;;13.30;99.90;;;14.25;100.00;97943.13;5046016;28;20547;-80
2023/09/16 07:02:30;;;;;;;3.90;3.50;;;13.40;99.90;;;14.30;100.00;97939.88;5039577;28;20511;-81
2023/09/16 07:05:01;;;;;;;5.00;3.97;;;13.40;99.90;;;14.35;100.00;97948.75;5038688;28;20980;-81
2023/09/16 07:07:31;;;;;;;4.30;3.50;;;13.40;99.90;;;14.40;100.00;97945.50;5043341;28;20454;-81
2023/09/16 07:10:02;;;;;;;16.73;6.60;;;13.40;99.90;;;14.44;100.00;97947.47;5043149;28;20485;-82
2023/09/16 07:12:33;;;;;;;4.90;3.77;;;13.40;99.90;;;14.46;100.00;97952.53;5039135;28;20512;-79
2023/09/16 07:15:06;;;;;;;7.90;3.90;;;13.50;99.90;;;14.51;100.00;97953.50;5044414;28;20606;-81
2023/09/16 07:17:36;;;;;;;5.87;4.40;;;13.50;99.90;;;14.54;100.00;97947.78;5043153;28;20480;-81
2023/09/16 07:20:08;;;;;;;7.10;3.50;;;13.50;99.90;;;14.57;100.00;97947.38;5041325;28;20468;-80
2023/09/16 07:22:38;;;;;;;4.10;3.40;;;13.60;99.90;;;14.61;100.00;97953.81;5040140;28;20495;-81
2023/09/16 07:25:08;;;;;;;122.23;66.20;;;13.70;99.90;;;14.67;100.00;97956.63;5044183;28;20962;-82
2023/09/16 07:27:40;;;;;;;9.20;5.80;;;13.70;99.90;;;14.73;100.00;97967.09;5047200;28;20564;-81
2023/09/16 07:30:09;;;;;;;5.73;3.90;;;13.80;99.90;;;14.77;100.00;97957.75;5046515;28;20457;-81
2023/09/16 07:32:40;;;;;;;4.87;3.67;;;13.80;99.90;;;14.83;100.00;97956.06;5041460;28;20460;-81
2023/09/16 07:35:11;;;;;;;5.30;3.60;;;13.90;99.90;;;14.88;100.00;97964.13;5044470;28;21217;-80
2023/09/16 07:37:41;;;;;;;7.30;4.20;;;14.00;99.90;;;14.93;100.00;97961.66;5043486;28;20536;-81
2023/09/16 07:40:13;;;;;;;8.40;4.10;;;14.00;99.90;;;14.98;100.00;97964.44;5044107;28;20507;-81
2023/09/16 07:42:44;;;;;;;7.53;3.90;;;14.10;99.90;;;15.02;100.00;97960.38;5043070;28;20461;-80
2023/09/16 07:45:14;;;;;;;4.90;3.53;;;14.10;99.90;;;15.08;100.00;97964.75;5042789;28;20464;-81
2023/09/16 07:47:45;;;;;;;5.17;3.83;;;14.20;99.90;;;15.13;100.00;97954.38;5041731;28;20480;-81
2023/09/16 07:50:15;;;;;;;5.57;4.30;;;14.20;99.90;;;15.17;100.00;97950.25;5040807;28;20557;-81
2023/09/16 07:52:46;;;;;;;5.93;4.47;;;14.30;99.90;;;15.22;100.00;97955.69;5041785;28;20464;-81
2023/09/16 07:55:15;;;;;;;9.13;3.77;;;14.40;99.90;;;15.27;100.00;97958.47;5044298;28;20480;-81
2023/09/16 07:57:46;;;;;;;6.13;4.10;;;14.40;99.90;;;15.33;100.00;97960.25;5039307;28;20557;-81
2023/09/16 08:00:15;;;;;;;5.87;3.93;;;14.50;99.90;;;15.38;100.00;97964.84;5041658;28;20466;-81
2023/09/16 08:02:45;;;;;;;6.40;4.80;;;14.60;99.90;;;15.43;100.00;97968.44;5041199;28;20474;-81
2023/09/16 08:05:17;;;;;;;48.80;21.90;;;14.70;99.90;;;15.48;100.00;97963.34;5042325;28;20464;-81
2023/09/16 08:07:47;;;;;;;7.60;5.63;;;14.70;99.90;;;15.52;100.00;97961.88;5043180;28;20461;-81
2023/09/16 08:10:16;;;;;;;12.07;7.90;;;14.80;99.90;;;15.58;100.00;97968.91;5042582;28;20466;-81
2023/09/16 08:12:47;;;;;;;9.73;4.20;;;14.80;99.90;;;15.65;100.00;97970.66;5040334;28;20873;-81
2023/09/16 08:15:17;;;;;;;5.87;3.97;;;14.80;99.90;;;15.72;100.00;97968.75;5041329;28;21225;-81
2023/09/16 08:17:46;;;;;;;6.17;4.20;;;14.90;99.90;;;15.77;100.00;97974.16;5043590;28;20475;-82
2023/09/16 08:20:19;;;;;;;8.10;4.27;;;15.00;99.90;;;15.83;100.00;97968.00;5042663;28;20518;-81
2023/09/16 08:22:48;;;;;;;10.70;4.17;;;15.00;99.90;;;15.88;100.00;97966.31;5040994;28;20464;-81
2023/09/16 08:25:18;;;;;;;4.60;4.00;;;15.10;99.90;;;15.94;100.00;97969.88;5038985;28;20464;-81
2023/09/16 08:27:48;;;;;;;19.47;10.73;;;15.20;99.90;;;16.00;100.00;97974.28;5042251;28;20463;-81
2023/09/16 08:30:18;;;;;;;43.47;24.63;;;15.20;99.90;;;16.09;100.00;97975.56;5040902;28;20452;-81
2023/09/16 08:32:48;;;;;;;16.33;9.83;;;15.30;99.90;;;16.16;100.00;97972.84;5039909;28;20547;-80
2023/09/16 08:35:18;;;;;;;8.83;4.73;;;15.40;99.90;;;16.22;100.00;97974.59;5043015;28;20593;-81
2023/09/16 08:37:48;;;;;;;7.63;5.23;;;15.50;99.90;;;16.28;100.00;97971.84;5041462;28;20469;-81
2023/09/16 08:40:18;;;;;;;5.30;3.63;;;15.50;99.90;;;16.32;100.00;97972.19;5041064;28;20469;-81
2023/09/16 08:43:15;;;;;;;5.10;4.10;;;15.60;99.90;;;16.39;100.00;97973.72;5038518;28;20464;-81
2023/09/16 08:45:53;;;;;;;4.80;3.77;;;15.70;99.90;;;16.44;100.00;97965.94;5036810;28;20473;-81
2023/09/16 08:48:26;;;;;;;6.63;4.20;;;15.70;99.90;;;16.50;100.00;97962.38;5043788;28;20495;-81
2023/09/16 08:50:58;;;;;;;8.27;4.07;;;15.80;99.90;;;16.55;100.00;97967.84;5042404;28;20597;-80
2023/09/16 08:53:31;;;;;;;5.77;5.00;;;15.80;99.90;;;16.63;100.00;97964.03;5045412;28;20469;-80
2023/09/16 08:56:02;;;;;;;6.20;3.93;;;15.90;99.90;;;16.69;100.00;97967.63;5044450;28;20938;-80
2023/09/16 08:58:35;;;;;;;5.47;4.53;;;16.00;99.90;;;16.75;100.00;97972.81;5047248;28;20484;-87
2023/09/16 09:01:05;;;;;;;31.43;14.33;;;16.10;99.90;;;16.81;100.00;97971.06;5045348;28;20465;-78
2023/09/16 09:03:35;;;;;;;7.37;5.40;;;16.10;99.90;;;16.87;100.00;97978.09;5043022;28;20472;-80
2023/09/16 09:06:05;;;;;;;27.27;14.97;;;16.20;99.90;;;16.94;100.00;97981.41;5043656;28;20469;-79
2023/09/16 09:08:35;;;;;;;20.77;12.57;;;16.30;99.90;;;17.01;100.00;97968.91;5044918;28;20469;-79
2023/09/16 09:11:06;;;;;;;8.10;6.00;;;16.40;99.90;;;17.06;100.00;97975.13;5040763;28;20460;-79
2023/09/16 09:13:38;;;;;;;7.88;5.07;;;16.50;99.90;;;17.15;100.00;97970.28;5039500;28;20551;-79
2023/09/16 09:16:07;;;;;;;5.93;4.90;;;16.50;99.90;;;17.22;100.00;97968.31;5048244;28;20342;-79
2023/09/16 09:18:39;;;;;;;7.37;4.80;;;16.60;99.90;;;17.28;100.00;97966.59;5051645;28;20488;-79
2023/09/16 09:21:09;;;;;;;9.20;3.80;;;16.70;99.90;;;17.34;100.00;97969.13;5049047;28;20465;-79
2023/09/16 09:23:39;;;;;;;6.77;4.70;;;16.80;99.90;;;17.40;100.00;97977.97;5047841;28;20470;-80
2023/09/16 09:26:08;;;;;;;5.63;4.63;;;16.80;99.90;;;17.46;100.00;97969.91;5052689;28;20456;-80
2023/09/16 09:28:39;;;;;;;5.97;4.60;;;16.90;99.90;;;17.50;100.00;97960.47;5044830;28;20527;-79
2023/09/16 09:31:09;;;;;;;6.90;4.80;;;16.90;99.90;;;17.57;100.00;97958.53;5050495;28;21113;-79
2023/09/16 09:33:41;;;;;;;6.17;4.40;;;17.00;99.90;;;17.65;100.00;97959.22;5047286;28;20468;-80
2023/09/16 09:36:12;;;;;;;10.50;5.00;;;17.10;99.90;;;17.70;100.00;97959.31;5048726;28;20810;-80
2023/09/16 09:38:44;;;;;;;9.53;3.93;;;17.20;99.90;;;17.76;100.00;97961.03;5049833;28;20511;-80
2023/09/16 09:41:15;;;;;;;9.17;4.97;;;17.20;99.90;;;17.81;100.00;97956.63;5045680;28;20490;-79
2023/09/16 09:43:48;;;;;;;6.07;4.70;;;17.30;99.90;;;17.87;100.00;97954.91;5049402;28;20461;-79
2023/09/16 09:46:17;;;;;;;5.90;3.90;;;17.40;99.90;;;17.93;100.00;97957.41;5047320;28;20567;-80
2023/09/16 09:48:48;;;;;;;10.40;5.20;;;17.40;99.90;;;18.03;100.00;97956.78;5046003;28;20464;-79
2023/09/16 09:51:19;;;;;;;7.63;4.30;;;17.50;99.90;;;18.10;100.00;97954.78;5048499;28;20495;-79
2023/09/16 09:53:48;;;;;;;7.63;4.47;;;17.60;99.90;;;18.17;100.00;97957.28;5048035;28;20819;-80
2023/09/16 09:56:19;;;;;;;8.83;3.97;;;17.60;99.90;;;18.24;100.00;97961.41;5048726;28;20577;-79
2023/09/16 09:58:51;;;;;;;6.90;4.43;;;17.70;99.90;;;18.34;100.00;97950.19;5045617;28;20472;-79
2023/09/16 10:01:22;;;;;;;6.50;4.10;;;17.80;99.90;;;18.40;100.00;97950.03;5047224;28;20470;-79
2023/09/16 10:03:52;;;;;;;10.03;4.83;;;17.90;99.90;;;18.47;100.00;97953.31;5048805;28;20464;-81
2023/09/16 10:06:24;;;;;;;10.73;4.60;;;17.90;99.90;;;18.51;100.00;97949.19;5044973;28;20476;-79
2023/09/16 10:08:54;;;;;;;9.23;4.20;;;18.00;99.90;;;18.58;100.00;97941.91;5045004;28;20465;-80
2023/09/16 10:11:28;;;;;;;6.73;4.50;;;18.10;99.90;;;18.70;100.00;97941.03;5047013;28;20498;-80
2023/09/16 10:14:00;;;;;;;5.60;4.20;;;18.20;99.90;;;18.74;100.00;97950.09;5048866;28;20473;-79
2023/09/16 10:16:32;;;;;;;5.70;4.57;;;18.30;99.90;;;18.79;100.00;97952.81;5049437;28;20545;-80
2023/09/16 10:19:02;;;;;;;6.37;4.73;;;18.30;99.90;;;18.85;100.00;97957.13;5048574;28;20542;-80
2023/09/16 10:21:34;;;;;;;8.07;5.07;;;18.40;99.90;;;18.94;100.00;97955.69;5044329;28;20552;-80
2023/09/16 10:24:05;;;;;;;5.83;4.93;;;18.40;99.90;;;18.98;100.00;97954.19;5048110;28;20922;-79
2023/09/16 10:26:35;;;;;;;6.17;4.80;;;18.50;99.90;;;19.07;100.00;97955.34;5049036;28;20874;-79
2023/09/16 10:29:09;;;;;;;6.57;3.93;;;18.60;99.90;;;19.14;100.00;97952.53;5047694;28;20518;-79